Time;durP1;ratioP1;P1;durP2;ratioP2;P2;SDS_P1;SDS_P2;PMS_P1;PMS_P2;Temp;Humidity;BMP_temperature;BMP_pressure;BME280_temperature;BME280_humidity;BME280_pressure;Samples;Min_cycle;Max_cycle;Signal;HPM_P1;HPM_P2
2022/05/27 00:01:49;;;;;;;5.10;4.70;;;;;;;20.79;52.61;101836.05;1579927;89;21604;-49
2022/05/27 00:04:16;;;;;;;4.87;4.47;;;;;;;20.79;52.47;101830.75;1581299;88;21051;-49
2022/05/27 00:06:42;;;;;;;4.80;4.40;;;;;;;20.80;52.20;101828.98;1583823;88;21553;-51
2022/05/27 00:09:09;;;;;;;4.85;4.45;;;;;;;20.79;52.11;101836.05;1580212;88;21082;-50
2022/05/27 00:11:35;;;;;;;4.33;4.00;;;;;;;20.79;51.95;101832.08;1586598;88;21108;-50
2022/05/27 00:14:03;;;;;;;5.15;4.75;;;;;;;20.78;51.89;101837.45;1584266;88;21127;-54
2022/05/27 00:16:29;;;;;;;5.10;4.50;;;;;;;20.77;51.74;101833.11;1610162;88;21579;-49
2022/05/27 00:18:58;;;;;;;4.83;4.53;;;;;;;20.73;51.60;101831.53;1589513;88;21087;-48
2022/05/27 00:21:26;;;;;;;4.65;4.25;;;;;;;20.69;51.55;101825.50;1649828;85;22623;-54
2022/05/27 00:23:53;;;;;;;5.25;3.98;;;;;;;20.67;51.65;101823.89;1660577;84;21019;-48
2022/05/27 00:26:20;;;;;;;4.42;4.12;;;;;;;20.63;51.50;101829.76;1682584;84;21081;-48
2022/05/27 00:28:47;;;;;;;5.17;4.78;;;;;;;20.59;51.57;101822.90;1682397;83;21096;-50
2022/05/27 00:31:18;;;;;;;4.85;4.47;;;;;;;20.55;51.57;101823.97;1706333;83;21594;-52
2022/05/27 00:33:42;;;;;;;4.85;4.45;;;;;;;20.53;51.52;101821.86;1669555;85;21030;-51
2022/05/27 00:36:10;;;;;;;4.70;4.30;;;;;;;20.51;51.45;101822.40;1680831;85;21047;-50
2022/05/27 00:38:38;;;;;;;4.72;4.33;;;;;;;20.50;51.27;101825.98;1680650;85;21067;-54
2022/05/27 00:41:06;;;;;;;4.70;4.30;;;;;;;20.49;50.98;101822.94;1680673;85;21091;-50
2022/05/27 00:43:34;;;;;;;4.50;4.20;;;;;;;20.46;51.02;101827.05;1680355;85;21024;-52
2022/05/27 00:46:14;;;;;;;5.35;4.85;;;;;;;20.45;50.94;101833.25;1680691;85;21110;-50
2022/05/27 00:48:41;;;;;;;4.62;4.33;;;;;;;20.42;50.69;101828.12;1678781;85;21393;-49
2022/05/27 00:51:21;;;;;;;5.30;4.87;;;;;;;20.39;50.86;101828.25;1668253;85;21023;-50
2022/05/27 00:53:56;;;;;;;4.62;4.22;;;;;;;20.36;50.75;101824.41;1660543;85;21083;-50
2022/05/27 00:56:25;;;;;;;4.70;4.30;;;;;;;20.31;50.65;101823.78;1690039;85;21047;-50
2022/05/27 00:58:58;;;;;;;5.05;4.65;;;;;;;20.25;50.40;101816.13;1694697;84;20996;-51
2022/05/27 01:01:25;;;;;;;;;;;;;;;20.21;50.47;101812.77;1682982;85;21016;-49
2022/05/27 01:03:54;;;;;;;4.40;4.00;;;;;;;20.20;50.71;101824.70;1646980;86;20508;-51
2022/05/27 01:06:21;;;;;;;4.15;3.75;;;;;;;20.17;50.56;101823.50;1644787;86;21626;-50
2022/05/27 01:08:48;;;;;;;4.40;3.80;;;;;;;20.15;50.38;101816.11;1646597;86;21142;-49
2022/05/27 01:11:23;;;;;;;4.17;3.77;;;;;;;20.13;50.26;101814.83;1631264;86;21069;-49
2022/05/27 01:14:16;;;;;;;3.87;3.58;;;;;;;20.12;50.24;101812.27;1649510;86;21077;-49
2022/05/27 01:17:14;;;;;;;3.80;3.50;;;;;;;20.10;50.14;101810.16;1640684;86;21158;-52
2022/05/27 01:20:19;;;;;;;4.17;3.87;;;;;;;20.09;50.18;101812.42;1633728;86;21132;-51
2022/05/27 01:23:03;;;;;;;3.95;3.65;;;;;;;20.05;50.25;101805.07;1671874;83;21578;-48
2022/05/27 01:25:56;;;;;;;3.80;3.50;;;;;;;20.00;50.23;101803.11;1624724;86;21122;-48
2022/05/27 01:28:43;;;;;;;3.95;3.30;;;;;;;19.98;50.28;101804.09;1631942;85;21097;-54
2022/05/27 01:31:42;;;;;;;3.58;3.27;;;;;;;19.94;50.15;101806.48;1646107;85;21206;-50
2022/05/27 01:34:49;;;;;;;3.75;3.45;;;;;;;19.92;50.07;101807.01;1646463;86;21055;-49
2022/05/27 01:37:35;;;;;;;3.50;3.20;;;;;;;19.91;50.16;101805.28;1571651;90;21079;-49
2022/05/27 01:40:32;;;;;;;4.33;3.70;;;;;;;19.90;50.32;101803.58;1571784;90;21095;-48
2022/05/27 01:43:16;;;;;;;3.90;3.42;;;;;;;19.91;50.32;101799.99;1577127;90;21040;-48
2022/05/27 01:46:07;;;;;;;4.30;3.85;;;;;;;19.91;50.32;101805.28;1576735;90;21122;-54
2022/05/27 01:48:52;;;;;;;3.90;3.60;;;;;;;19.90;50.11;101801.80;1518408;94;21156;-49
2022/05/27 01:51:36;;;;;;;4.30;3.62;;;;;;;19.89;50.16;101801.84;1518472;94;21072;-48
2022/05/27 01:54:13;;;;;;;5.35;3.65;;;;;;;19.87;50.14;101795.77;1463260;96;21196;-48
2022/05/27 01:56:51;;;;;;;3.80;3.50;;;;;;;19.83;50.33;101797.70;1423383;99;22980;-48
2022/05/27 01:59:38;;;;;;;4.33;3.35;;;;;;;19.82;50.23;101803.05;1387491;101;21160;-52
2022/05/27 02:02:13;;;;;;;3.65;3.35;;;;;;;19.80;50.16;101802.27;1421557;99;21099;-48
2022/05/27 02:04:51;;;;;;;3.83;3.52;;;;;;;19.78;50.22;101804.98;1430072;99;21094;-51
2022/05/27 02:07:24;;;;;;;4.50;4.10;;;;;;;19.79;50.25;101805.81;1404263;100;21731;-48
2022/05/27 02:09:55;;;;;;;3.90;3.60;;;;;;;19.79;50.38;101799.21;1419923;99;21121;-48
2022/05/27 02:12:31;;;;;;;;;;;;;;;19.81;50.43;101806.61;1387702;103;21095;-53
2022/05/27 02:15:21;;;;;;;4.20;3.60;;;;;;;19.82;50.47;101797.77;1323697;107;20466;-50
2022/05/27 02:17:52;;;;;;;3.92;3.62;;;;;;;19.81;50.45;101799.55;1381849;102;21237;-49
2022/05/27 02:20:24;;;;;;;5.08;3.77;;;;;;;19.81;50.46;101798.68;1379222;102;21204;-51
2022/05/27 02:22:56;;;;;;;3.60;3.33;;;;;;;19.81;50.37;101805.28;1359789;104;21133;-50
2022/05/27 02:25:28;;;;;;;3.60;3.30;;;;;;;19.79;50.10;101800.53;1375203;103;21183;-50
2022/05/27 02:28:14;;;;;;;5.10;3.70;;;;;;;19.77;49.88;101810.30;1376068;102;21678;-50
2022/05/27 02:30:44;;;;;;;4.20;3.80;;;;;;;19.76;49.84;101811.25;1399446;100;21145;-50
2022/05/27 02:36:12;;;;;;;4.70;3.85;;;;;;;19.75;49.93;101805.55;1415444;100;21192;-50
2022/05/27 02:38:39;;;;;;;4.70;4.30;;;;;;;19.76;50.06;101813.89;1413081;101;21152;-49
2022/05/27 02:41:22;;;;;;;4.30;3.90;;;;;;;19.75;49.89;101812.16;1413179;101;21164;-49
2022/05/27 02:44:10;;;;;;;5.28;4.20;;;;;;;19.75;49.91;101815.66;1413641;99;21180;-51
2022/05/27 02:47:17;;;;;;;4.17;3.77;;;;;;;19.76;49.91;101813.89;1465528;96;21134;-49
2022/05/27 02:50:10;;;;;;;4.67;4.30;;;;;;;19.75;50.06;101813.47;1451292;97;21673;-48
2022/05/27 02:52:48;;;;;;;4.20;3.80;;;;;;;19.73;50.02;101808.72;1422992;99;21678;-50
2022/05/27 02:55:20;;;;;;;4.58;4.17;;;;;;;19.71;49.78;101811.89;1407907;100;21606;-49
2022/05/27 02:57:49;;;;;;;5.12;4.62;;;;;;;19.71;49.72;101818.49;1387407;99;21687;-51
2022/05/27 03:00:23;;;;;;;5.05;4.03;;;;;;;19.71;49.72;101822.00;1400416;99;21886;-51
2022/05/27 03:02:51;;;;;;;4.45;3.85;;;;;;;19.72;49.66;101816.27;1399055;101;21161;-51
2022/05/27 03:05:19;;;;;;;4.62;3.90;;;;;;;19.76;49.75;101813.89;1400953;101;21207;-49
2022/05/27 03:08:26;;;;;;;6.78;3.60;;;;;;;19.81;49.64;101817.17;1398656;101;21258;-49
2022/05/27 03:11:13;;;;;;;4.00;3.58;;;;;;;19.86;49.62;101821.80;1422833;99;21166;-49
2022/05/27 03:14:05;;;;;;;4.35;3.52;;;;;;;19.92;49.60;101814.94;1432563;98;21141;-47
2022/05/27 03:16:55;;;;;;;6.33;3.77;;;;;;;19.95;49.57;101814.78;1455907;96;21127;-49
2022/05/27 03:19:48;;;;;;;3.83;3.52;;;;;;;19.96;49.62;101813.88;1423623;98;21746;-51
2022/05/27 03:22:57;;;;;;;4.50;3.40;;;;;;;19.98;49.56;101814.21;1419778;100;21232;-54
2022/05/27 03:25:44;;;;;;;3.85;3.55;;;;;;;20.01;49.67;101811.91;1431599;99;22930;-53
2022/05/27 03:28:20;;;;;;;4.40;3.60;;;;;;;20.05;49.88;101808.20;1430126;99;21106;-50
2022/05/27 03:31:04;;;;;;;4.50;3.25;;;;;;;20.09;50.01;101809.78;1416599;100;21190;-54
2022/05/27 03:33:40;;;;;;;3.52;3.25;;;;;;;20.14;49.91;101810.41;1390761;102;21276;-55
2022/05/27 03:36:23;;;;;;;3.55;3.25;;;;;;;20.17;49.85;101807.65;1387523;101;21164;-52
2022/05/27 03:38:58;;;;;;;3.70;3.35;;;;;;;20.23;49.73;101810.05;1396415;101;21694;-50
2022/05/27 03:41:36;;;;;;;4.08;3.37;;;;;;;20.26;49.55;101808.12;1388174;101;21106;-51
2022/05/27 03:44:02;;;;;;;3.87;3.50;;;;;;;20.29;49.53;101809.77;1385338;101;21128;-49
2022/05/27 03:46:34;;;;;;;3.52;2.85;;;;;;;20.32;49.60;101809.61;1396313;102;21163;-54
2022/05/27 03:49:01;;;;;;;3.30;3.10;;;;;;;20.34;49.45;101809.08;1371446;102;21289;-50
2022/05/27 03:51:32;;;;;;;6.55;3.40;;;;;;;20.37;49.33;101804.13;1356817;104;21630;-53
2022/05/27 03:54:04;;;;;;;3.30;3.00;;;;;;;20.51;49.58;101804.34;1368042;102;21199;-49
2022/05/27 03:56:35;;;;;;;2.80;2.60;;;;;;;20.64;49.69;101807.69;1389847;99;21217;-51
2022/05/27 03:59:03;;;;;;;3.35;3.05;;;;;;;20.95;49.23;101807.95;1376628;101;21105;-49
2022/05/27 04:01:31;;;;;;;2.90;2.67;;;;;;;21.46;48.28;101806.34;1413488;101;21616;-48
2022/05/27 04:04:01;;;;;;;4.55;2.90;;;;;;;21.91;46.85;101815.12;1426777;97;21119;-49
2022/05/27 04:06:28;;;;;;;2.62;2.42;;;;;;;22.21;45.87;101811.72;1540945;91;21114;-53
2022/05/27 04:08:57;;;;;;;3.90;2.77;;;;;;;22.40;45.20;101820.37;1553022;91;21545;-52
2022/05/27 04:11:27;;;;;;;3.47;2.80;;;;;;;22.48;44.87;101819.48;1530513;92;21170;-49
2022/05/27 04:13:53;;;;;;;3.05;2.85;;;;;;;22.46;45.06;101817.39;1561704;91;21051;-48
2022/05/27 04:16:20;;;;;;;3.15;2.50;;;;;;;22.42;45.41;101821.14;1537021;92;21114;-48
2022/05/27 04:18:47;;;;;;;2.85;2.65;;;;;;;22.39;45.53;101818.67;1551888;92;21189;-48
2022/05/27 04:21:13;;;;;;;3.92;2.77;;;;;;;22.37;45.46;101826.32;1562415;90;21117;-52
2022/05/27 04:23:40;;;;;;;3.20;2.90;;;;;;;22.37;45.22;101822.34;1559129;91;21078;-49
2022/05/27 04:26:07;;;;;;;2.55;2.35;;;;;;;22.36;44.73;101825.45;1543514;92;21613;-50
2022/05/27 04:28:34;;;;;;;7.33;3.12;;;;;;;22.36;44.65;101829.44;1546356;92;21585;-50
2022/05/27 04:31:02;;;;;;;18.07;5.60;;;;;;;22.35;45.02;101832.17;1541225;92;21069;-49
2022/05/27 04:33:29;;;;;;;11.15;4.22;;;;;;;22.34;45.46;101833.13;1541486;92;21645;-50
2022/05/27 04:35:57;;;;;;;7.37;3.37;;;;;;;22.30;45.89;101835.06;1572386;85;21054;-51
2022/05/27 04:38:24;;;;;;;3.58;2.90;;;;;;;22.28;46.22;101835.62;1684844;84;21066;-51
2022/05/27 04:40:51;;;;;;;2.60;2.40;;;;;;;22.28;46.24;101835.62;1676217;84;21531;-49
2022/05/27 04:43:18;;;;;;;2.30;2.15;;;;;;;22.25;45.95;101831.83;1693826;83;21182;-49
2022/05/27 04:45:46;;;;;;;4.87;2.98;;;;;;;22.26;45.75;101833.52;1672322;84;21554;-53
2022/05/27 04:48:15;;;;;;;3.80;3.50;;;;;;;22.29;45.79;101827.20;1668203;84;21044;-49
2022/05/27 04:50:43;;;;;;;2.83;2.52;;;;;;;22.30;45.79;101832.41;1666024;84;21066;-49
2022/05/27 04:53:10;;;;;;;3.77;2.70;;;;;;;22.34;45.69;101828.66;1676744;84;21102;-49
2022/05/27 04:55:39;;;;;;;4.12;2.22;;;;;;;22.38;45.63;101830.20;1678708;83;21047;-48
2022/05/27 04:58:06;;;;;;;2.90;2.70;;;;;;;22.43;45.56;101828.18;1665381;84;21060;-50
2022/05/27 05:00:37;;;;;;;2.35;2.20;;;;;;;22.51;45.55;101826.42;1678454;84;21059;-51
2022/05/27 05:03:04;;;;;;;2.50;2.30;;;;;;;22.61;45.60;101829.86;1661117;85;21073;-50
2022/05/27 05:05:32;;;;;;;2.35;2.15;;;;;;;22.74;45.67;101826.53;1688232;84;21117;-51
2022/05/27 05:08:04;;;;;;;3.30;2.20;;;;;;;22.87;45.63;101822.27;1697073;83;21529;-49
2022/05/27 05:10:32;;;;;;;2.55;2.17;;;;;;;23.02;45.46;101819.59;1689430;84;21036;-52
2022/05/27 05:12:59;;;;;;;3.17;2.87;;;;;;;23.21;45.30;101822.05;1688831;84;21034;-52
2022/05/27 05:15:26;;;;;;;2.40;2.20;;;;;;;23.41;45.06;101824.47;1660334;85;22303;-49
2022/05/27 05:17:53;;;;;;;2.60;2.40;;;;;;;23.62;44.72;101828.51;1693052;83;21059;-53
2022/05/27 05:20:25;;;;;;;2.65;2.45;;;;;;;23.81;44.21;101825.15;1679891;85;21576;-53
2022/05/27 05:22:52;;;;;;;2.80;2.60;;;;;;;23.97;43.83;101819.28;1605014;88;21157;-54
2022/05/27 05:25:21;;;;;;;4.08;2.70;;;;;;;24.16;43.40;101829.22;1605404;88;21549;-49
2022/05/27 05:27:48;;;;;;;3.27;2.22;;;;;;;24.38;43.12;101826.58;1605486;89;21105;-50
2022/05/27 05:30:18;;;;;;;2.20;2.05;;;;;;;24.63;42.41;101825.39;1595411;88;21093;-48
2022/05/27 05:32:47;;;;;;;4.50;2.02;;;;;;;24.94;41.82;101825.18;1603596;89;21090;-49
2022/05/27 05:35:14;;;;;;;5.35;2.25;;;;;;;25.27;40.96;101829.64;1603485;89;21098;-49
2022/05/27 05:37:41;;;;;;;2.90;2.30;;;;;;;25.56;39.91;101831.26;1603509;89;21102;-54
2022/05/27 05:40:10;;;;;;;3.58;2.42;;;;;;;25.79;38.75;101838.56;1603731;88;21038;-51
2022/05/27 05:42:36;;;;;;;3.95;2.22;;;;;;;25.97;38.27;101836.91;1603648;89;21041;-49
2022/05/27 05:45:07;;;;;;;2.30;2.10;;;;;;;26.16;37.98;101834.72;1603920;88;21062;-49
2022/05/27 05:47:34;;;;;;;2.33;2.10;;;;;;;26.34;37.29;101836.09;1603573;89;21641;-49
2022/05/27 05:50:00;;;;;;;6.22;2.83;;;;;;;26.52;36.34;101826.30;1603658;89;21141;-49
2022/05/27 05:52:27;;;;;;;6.60;2.77;;;;;;;26.70;37.10;101834.82;1603588;88;21387;-49
2022/05/27 05:54:54;;;;;;;6.75;3.35;;;;;;;27.05;37.74;101832.28;1603779;88;21660;-49
2022/05/27 05:57:21;;;;;;;6.72;3.17;;;;;;;27.05;37.74;101832.28;1603800;88;21034;-49
2022/05/27 05:59:49;;;;;;;6.53;2.90;;;;;;;27.26;37.23;101831.57;1603511;88;21554;-52
2022/05/27 06:02:17;;;;;;;4.78;2.95;;;;;;;27.53;36.94;101835.84;1603613;89;21089;-48
2022/05/27 06:04:43;;;;;;;4.42;2.85;;;;;;;27.79;36.42;101829.34;1598563;89;21037;-49
2022/05/27 06:07:10;;;;;;;4.67;2.55;;;;;;;28.00;36.05;101830.41;1603773;89;21034;-49
2022/05/27 06:09:37;;;;;;;4.92;2.95;;;;;;;28.14;35.46;101836.39;1603737;89;21114;-52
2022/05/27 06:12:05;;;;;;;3.40;2.30;;;;;;;28.21;35.26;101830.08;1603842;88;21077;-50
2022/05/27 06:14:35;;;;;;;6.95;3.20;;;;;;;28.21;35.79;101830.56;1603519;88;21748;-50
2022/05/27 06:17:04;;;;;;;11.10;3.50;;;;;;;28.15;35.84;101830.56;1603735;88;21049;-50
2022/05/27 06:19:31;;;;;;;6.60;3.92;;;;;;;28.08;36.06;101832.00;1642434;85;21091;-49
2022/05/27 06:21:58;;;;;;;6.05;3.20;;;;;;;27.98;35.72;101832.35;1679009;84;21575;-51
2022/05/27 06:24:25;;;;;;;5.58;3.10;;;;;;;27.90;35.84;101836.08;1690664;84;21041;-48
2022/05/27 06:26:51;;;;;;;5.12;3.47;;;;;;;27.85;36.00;101824.86;1690759;84;21030;-49
2022/05/27 06:34:51;;;;;;;8.60;3.42;;;;;;;27.87;36.63;101830.47;1688536;83;21052;-51
2022/05/27 06:37:20;;;;;;;8.38;3.85;;;;;;;27.87;36.73;101834.95;1697526;84;21591;-49
2022/05/27 06:39:48;;;;;;;6.25;3.00;;;;;;;27.83;36.71;101828.14;1673547;83;21085;-51
2022/05/27 06:42:15;;;;;;;4.28;3.35;;;;;;;27.81;36.88;101830.08;1691429;84;21014;-53
2022/05/27 06:44:42;;;;;;;4.92;2.83;;;;;;;27.76;37.06;101824.25;1706146;84;21018;-51
2022/05/27 06:47:09;;;;;;;4.40;3.12;;;;;;;27.74;37.52;101828.87;1692742;84;21065;-49
2022/05/27 06:49:37;;;;;;;4.47;3.00;;;;;;;27.76;37.57;101824.25;1691051;83;21057;-48
2022/05/27 06:52:07;;;;;;;7.17;3.27;;;;;;;27.80;37.80;101825.72;1690288;83;21112;-50
2022/05/27 06:54:34;;;;;;;5.00;2.92;;;;;;;27.83;37.63;101826.33;1701971;83;21028;-49
2022/05/27 06:57:02;;;;;;;7.47;3.70;;;;;;;27.81;37.53;101830.08;1693566;83;21100;-51
2022/05/27 06:59:29;;;;;;;4.75;3.45;;;;;;;27.74;37.71;101830.20;1697277;83;21035;-48
2022/05/27 07:01:56;;;;;;;4.47;3.22;;;;;;;27.65;37.66;101837.58;1694983;83;21569;-48
2022/05/27 07:04:23;;;;;;;6.35;3.30;;;;;;;27.54;37.75;101836.19;1649498;85;21087;-49
2022/05/27 07:06:50;;;;;;;5.90;3.55;;;;;;;27.40;37.79;101841.25;1663436;85;21045;-49
2022/05/27 07:09:21;;;;;;;5.58;3.33;;;;;;;27.22;38.13;101840.75;1666190;85;21048;-51
2022/05/27 07:11:52;;;;;;;5.87;3.10;;;;;;;27.04;38.57;101834.09;1668945;85;21087;-52
2022/05/27 07:14:20;;;;;;;7.15;3.58;;;;;;;26.91;38.96;101827.11;1686177;83;21498;-50
2022/05/27 07:16:48;;;;;;;5.87;3.27;;;;;;;26.84;39.25;101830.70;1683132;82;21039;-50
2022/05/27 07:19:19;;;;;;;5.47;3.25;;;;;;;26.81;39.38;101833.58;1688652;83;21037;-53
2022/05/27 07:21:44;;;;;;;5.75;3.60;;;;;;;26.77;39.32;101837.44;1684023;83;21042;-50
2022/05/27 07:24:14;;;;;;;5.97;3.60;;;;;;;26.60;39.99;101833.78;1694645;83;21120;-50
2022/05/27 07:26:41;;;;;;;7.58;3.35;;;;;;;26.60;39.99;101833.78;1690085;84;21022;-50
2022/05/27 07:29:08;;;;;;;5.10;3.17;;;;;;;26.53;40.25;101841.84;1687502;84;21279;-49
2022/05/27 07:31:37;;;;;;;4.03;3.62;;;;;;;26.53;40.25;101841.84;1690151;83;21051;-51
2022/05/27 07:34:06;;;;;;;3.90;3.35;;;;;;;26.54;40.11;101844.90;1690572;84;21111;-51
2022/05/27 07:36:33;;;;;;;6.92;3.20;;;;;;;26.56;40.15;101836.30;1695827;83;21536;-49
2022/05/27 07:39:00;;;;;;;4.78;2.90;;;;;;;26.56;40.15;101836.30;1666430;84;21526;-50
2022/05/27 07:41:27;;;;;;;3.98;3.20;;;;;;;26.59;40.06;101834.73;1665999;84;21087;-52
2022/05/27 07:43:54;;;;;;;3.85;3.25;;;;;;;26.61;40.24;101836.80;1667522;84;21535;-49
2022/05/27 07:46:23;;;;;;;9.03;3.20;;;;;;;26.60;40.33;101831.11;1697897;83;21096;-52
2022/05/27 07:48:50;;;;;;;8.58;3.45;;;;;;;26.63;40.43;101838.41;1679620;84;21038;-50
2022/05/27 07:51:17;;;;;;;6.10;3.12;;;;;;;26.63;40.43;101838.41;1688220;83;21063;-50
2022/05/27 07:53:44;;;;;;;5.12;3.90;;;;;;;26.63;40.60;101834.88;1691358;83;21031;-48
2022/05/27 07:56:11;;;;;;;5.67;3.83;;;;;;;26.52;40.69;101831.64;1662076;85;21699;-51
2022/05/27 07:58:39;;;;;;;5.15;3.62;;;;;;;26.52;40.69;101831.64;1675156;84;21575;-48
2022/05/27 08:01:05;;;;;;;8.48;4.33;;;;;;;26.33;41.58;101834.40;1669022;85;21578;-51
2022/05/27 08:03:32;;;;;;;6.97;3.90;;;;;;;26.33;41.58;101834.40;1678442;83;21699;-50
2022/05/27 08:06:01;;;;;;;5.08;4.12;;;;;;;26.25;41.67;101834.95;1668490;85;21059;-48
2022/05/27 08:10:58;;;;;;;4.42;3.40;;;;;;;26.06;42.54;101825.61;1587142;89;21129;-48
2022/05/27 08:13:26;;;;;;;4.60;4.03;;;;;;;26.02;42.78;101833.46;1590829;88;21060;-48
2022/05/27 08:15:53;;;;;;;6.47;3.95;;;;;;;26.02;42.84;101834.79;1590234;88;21101;-50
2022/05/27 08:18:20;;;;;;;5.28;4.20;;;;;;;26.02;43.00;101828.98;1603683;87;21089;-51
2022/05/27 08:20:48;;;;;;;5.58;5.00;;;;;;;26.04;43.10;101821.73;1597997;87;21125;-49
2022/05/27 08:23:14;;;;;;;4.72;4.25;;;;;;;26.02;43.26;101822.31;1595173;88;21081;-50
2022/05/27 08:25:42;;;;;;;5.47;4.30;;;;;;;26.02;43.44;101820.13;1613689;87;21036;-51
2022/05/27 08:28:09;;;;;;;4.55;4.20;;;;;;;25.99;43.86;101823.02;1623199;87;21097;-47
2022/05/27 08:30:38;;;;;;;4.87;4.42;;;;;;;25.99;43.94;101820.35;1605536;87;21096;-50
2022/05/27 08:33:05;;;;;;;5.90;4.65;;;;;;;26.03;44.19;101819.18;1597999;88;21075;-50
2022/05/27 08:38:22;;;;;;;6.08;4.60;;;;;;;26.01;44.31;101815.77;1596185;88;21067;-51
2022/05/27 08:41:40;;;;;;;5.87;4.37;;;;;;;25.99;44.28;101807.84;1572079;90;21099;-49
2022/05/27 08:44:43;;;;;;;5.35;4.85;;;;;;;26.00;44.25;101820.70;1564348;89;21098;-50
2022/05/27 08:47:26;;;;;;;5.67;4.17;;;;;;;25.97;44.51;101818.23;1604371;87;21022;-49
2022/05/27 08:50:36;;;;;;;5.67;4.75;;;;;;;25.93;44.76;101812.27;1595739;88;21651;-51
2022/05/27 08:53:41;;;;;;;4.47;4.08;;;;;;;25.92;44.98;101805.25;1552970;89;21528;-50
2022/05/27 08:59:27;;;;;;;4.85;4.35;;;;;;;25.95;45.16;101800.16;1474036;95;21163;-51
2022/05/27 09:02:14;;;;;;;5.03;4.20;;;;;;;25.97;45.08;101797.77;1472989;95;21588;-50
2022/05/27 09:04:59;;;;;;;5.70;4.22;;;;;;;25.97;45.05;101792.91;1407252;98;21740;-50
2022/05/27 09:07:51;;;;;;;3.95;3.58;;;;;;;25.92;45.18;101795.05;1453728;95;21057;-50
2022/05/27 09:10:31;;;;;;;4.92;4.00;;;;;;;25.89;45.41;101793.91;1504012;93;21091;-50
2022/05/27 09:13:30;;;;;;;4.95;3.72;;;;;;;25.87;45.59;101786.50;1512144;93;21086;-50
2022/05/27 09:16:16;;;;;;;4.80;4.40;;;;;;;25.90;45.51;101784.97;1513844;92;21083;-51
2022/05/27 09:19:13;;;;;;;3.70;3.40;;;;;;;25.91;45.39;101786.66;1480719;94;21087;-50
2022/05/27 09:22:19;;;;;;;6.87;4.28;;;;;;;25.89;45.51;101788.11;1482534;94;21676;-51
2022/05/27 09:25:04;;;;;;;7.40;3.90;;;;;;;25.92;45.52;101789.72;1474763;94;21218;-50
2022/05/27 09:28:00;;;;;;;4.45;3.80;;;;;;;25.94;45.28;101782.47;1457184;94;21176;-50
2022/05/27 09:30:28;;;;;;;4.08;3.45;;;;;;;25.90;45.18;101778.30;1454646;94;21111;-50
2022/05/27 09:33:04;;;;;;;7.35;4.00;;;;;;;25.80;45.27;101769.59;1458390;94;21182;-50
2022/05/27 09:35:39;;;;;;;4.97;3.75;;;;;;;25.73;45.53;101764.34;1458600;95;21326;-51
2022/05/27 09:38:08;;;;;;;7.08;4.45;;;;;;;25.71;45.82;101771.59;1487673;92;20499;-51
2022/05/27 09:43:41;;;;;;;3.42;3.15;;;;;;;25.72;46.00;101759.95;1507769;93;21159;-51
2022/05/27 09:46:13;;;;;;;6.55;3.65;;;;;;;25.74;45.96;101755.36;1534195;92;21052;-52
2022/05/27 09:48:42;;;;;;;4.85;3.75;;;;;;;25.76;45.79;101754.77;1469500;96;21127;-50
2022/05/27 09:51:12;;;;;;;5.25;3.72;;;;;;;25.77;45.73;101744.50;1469379;96;21171;-49
2022/05/27 09:53:42;;;;;;;4.37;3.70;;;;;;;25.79;45.89;101741.72;1468977;96;21648;-52
2022/05/27 09:56:12;;;;;;;4.15;3.40;;;;;;;25.82;46.15;101745.02;1466603;96;21125;-51
2022/05/27 09:58:44;;;;;;;3.60;3.30;;;;;;;25.87;46.11;101735.36;1466941;95;21608;-50
2022/05/27 10:01:25;;;;;;;4.80;3.50;;;;;;;25.91;46.31;101726.19;1495148;94;21195;-50
2022/05/27 10:04:06;;;;;;;4.35;3.52;;;;;;;25.91;46.31;101726.19;1492341;94;21129;-51
2022/05/27 10:06:35;;;;;;;6.83;3.40;;;;;;;25.96;46.36;101721.87;1477977;94;21065;-49
2022/05/27 10:09:08;;;;;;;4.25;3.12;;;;;;;25.99;46.24;101719.83;1488832;94;21133;-50
2022/05/27 10:11:50;;;;;;;3.10;2.90;;;;;;;26.02;45.84;101723.62;1509389;92;21092;-51
2022/05/27 10:14:32;;;;;;;4.80;2.97;;;;;;;26.01;45.41;101717.08;1467088;95;21153;-52
2022/05/27 10:17:15;;;;;;;5.92;3.22;;;;;;;25.98;45.28;101714.14;1439598;96;21319;-51
2022/05/27 10:19:44;;;;;;;3.33;3.08;;;;;;;25.91;45.15;101707.52;1440849;98;21148;-51
2022/05/27 10:22:27;;;;;;;4.37;3.25;;;;;;;25.86;45.28;101703.02;1434895;97;21629;-50
2022/05/27 10:25:04;;;;;;;4.33;3.35;;;;;;;25.77;45.08;101693.84;1438503;97;21146;-50
2022/05/27 10:27:41;;;;;;;4.17;3.40;;;;;;;25.74;45.20;101698.05;1423426;99;21177;-49
2022/05/27 10:30:28;;;;;;;3.50;3.25;;;;;;;25.69;45.46;101707.33;1425776;99;22264;-50
2022/05/27 10:33:00;;;;;;;5.65;3.52;;;;;;;25.69;45.46;101707.33;1424058;98;21254;-50
2022/05/27 10:35:31;;;;;;;;;;;;;;;25.62;45.43;101698.04;1411145;99;21561;-50
2022/05/27 10:38:23;;;;;;;3.52;3.22;;;;;;;25.55;45.56;101697.64;1428094;98;20245;-50
2022/05/27 10:41:19;;;;;;;5.67;3.75;;;;;;;25.48;45.82;101703.00;1448964;95;21136;-49
2022/05/27 10:44:21;;;;;;;4.12;3.77;;;;;;;25.43;46.24;101705.12;1460048;96;21129;-48
2022/05/27 10:46:54;;;;;;;3.83;3.52;;;;;;;25.42;46.65;101695.44;1507978;93;21105;-51
2022/05/27 10:49:51;;;;;;;3.70;3.12;;;;;;;25.45;47.05;101695.20;1497788;94;21146;-53
2022/05/27 10:52:47;;;;;;;3.10;2.80;;;;;;;25.51;47.21;101689.45;1505147;93;21068;-50
2022/05/27 10:55:47;;;;;;;4.33;3.60;;;;;;;25.59;47.23;101689.80;1487053;95;21082;-50
2022/05/27 11:04:27;;;;;;;5.17;3.40;;;;;;;25.74;46.53;101675.38;1455496;97;21171;-52
2022/05/27 11:07:18;;;;;;;3.65;3.35;;;;;;;25.71;46.54;101680.95;1424385;98;21978;-49
2022/05/27 11:09:58;;;;;;;5.53;3.42;;;;;;;25.68;46.69;101673.15;1404187;99;21654;-53
2022/05/27 11:15:55;;;;;;;3.87;3.35;;;;;;;25.65;46.80;101667.19;1407684;100;21607;-53
2022/05/27 11:18:51;;;;;;;4.50;3.52;;;;;;;25.69;46.91;101673.53;1361058;104;21175;-49
2022/05/27 11:21:58;;;;;;;3.87;3.40;;;;;;;25.75;46.87;101669.10;1349692;104;21186;-50
2022/05/27 11:24:48;;;;;;;4.20;3.75;;;;;;;25.80;46.82;101661.61;1361314;104;21173;-50
2022/05/27 11:27:59;;;;;;;3.52;3.22;;;;;;;25.87;46.64;101658.03;1379560;102;21247;-51
2022/05/27 11:30:52;;;;;;;3.63;3.20;;;;;;;25.91;46.34;101650.19;1390588;100;21194;-49
2022/05/27 11:33:57;;;;;;;4.03;3.60;;;;;;;25.94;46.04;101643.79;1422080;100;21354;-48
2022/05/27 11:36:29;;;;;;;7.20;3.35;;;;;;;25.94;45.58;101639.32;1372206;103;21238;-50
2022/05/27 11:39:26;;;;;;;4.50;3.45;;;;;;;25.94;45.58;101639.32;1394717;100;21164;-52
2022/05/27 11:42:10;;;;;;;4.72;3.33;;;;;;;25.90;45.08;101631.64;1406472;99;21138;-50
2022/05/27 11:44:45;;;;;;;4.08;3.60;;;;;;;25.90;45.08;101631.64;1444924;96;21177;-48
2022/05/27 11:47:50;;;;;;;3.25;2.95;;;;;;;25.87;44.89;101631.84;1448626;96;21171;-50
2022/05/27 11:50:28;;;;;;;3.90;3.50;;;;;;;25.80;44.90;101628.28;1459128;95;21182;-47
2022/05/27 11:53:37;;;;;;;7.28;3.92;;;;;;;25.70;45.19;101628.57;1430718;99;21141;-48
2022/05/27 11:56:12;;;;;;;3.95;3.42;;;;;;;25.62;45.61;101617.61;1444178;97;21235;-51
2022/05/27 11:58:56;;;;;;;4.22;3.85;;;;;;;25.57;46.10;101619.76;1465271;96;21179;-51
2022/05/27 12:01:45;;;;;;;6.30;4.17;;;;;;;25.55;46.45;101624.34;1529527;91;21596;-49
2022/05/27 12:04:17;;;;;;;5.47;3.58;;;;;;;25.55;46.66;101623.02;1530233;90;21155;-48
2022/05/27 12:07:13;;;;;;;3.98;3.58;;;;;;;25.54;46.93;101622.63;1506866;92;21593;-49
2022/05/27 12:09:55;;;;;;;6.35;3.95;;;;;;;25.54;47.14;101619.96;1563677;89;21110;-50
2022/05/27 12:12:49;;;;;;;4.17;3.77;;;;;;;25.57;47.33;101614.43;1571361;89;21644;-49
2022/05/27 12:15:32;;;;;;;4.90;3.47;;;;;;;25.58;47.65;101612.59;1536701;91;21130;-51
2022/05/27 12:17:58;;;;;;;5.87;3.80;;;;;;;25.64;47.72;101611.69;1539159;91;21123;-48
2022/05/27 12:20:32;;;;;;;5.15;3.98;;;;;;;25.69;47.79;101610.89;1532462;91;21215;-50
2022/05/27 12:23:03;;;;;;;7.35;4.33;;;;;;;25.76;47.79;101612.14;1528972;92;21231;-50
2022/05/27 12:25:33;;;;;;;;;;;;;;;25.82;47.80;101610.36;1519194;93;21039;-49
2022/05/27 12:28:01;;;;;;;5.80;4.17;;;;;;;25.89;47.68;101609.92;1514881;92;20173;-48
2022/05/27 12:30:37;;;;;;;4.70;4.30;;;;;;;25.94;47.67;101605.12;1549056;89;21679;-50
2022/05/27 12:33:13;;;;;;;5.20;3.90;;;;;;;25.97;47.73;101606.22;1581430;88;21116;-50